createdAt,value
2023-02-19T00:00:09.135Z,9.8
2023-02-19T00:01:22.443Z,9.9
2023-02-19T00:02:35.084Z,9.9
2023-02-19T00:03:48.146Z,10
2023-02-19T00:05:01.126Z,10
2023-02-19T00:06:14.106Z,10
2023-02-19T00:07:27.129Z,10
2023-02-19T00:08:40.341Z,10
2023-02-19T00:09:53.082Z,10
2023-02-19T00:11:06.356Z,10
2023-02-19T00:12:19.082Z,10
2023-02-19T00:13:32.457Z,10
2023-02-19T00:14:45.107Z,10
2023-02-19T00:15:58.064Z,10
2023-02-19T00:17:11.094Z,9.8
2023-02-19T00:18:24.146Z,9.8
2023-02-19T00:19:36.780Z,9.8
2023-02-19T00:20:50.404Z,9.8
2023-02-19T00:22:03.097Z,9.8
2023-02-19T00:23:16.098Z,9.8
2023-02-19T00:24:29.078Z,9.8
2023-02-19T00:25:42.281Z,9.8
2023-02-19T00:26:55.129Z,9.8
2023-02-19T00:28:08.054Z,9.7
2023-02-19T00:29:21.118Z,9.7
2023-02-19T00:30:34.104Z,9.8
2023-02-19T00:31:47.160Z,9.7
2023-02-19T00:33:00.152Z,9.7
2023-02-19T00:34:13.098Z,9.8
2023-02-19T00:35:26.102Z,9.8
2023-02-19T00:36:39.117Z,9.8
2023-02-19T00:37:52.099Z,9.8
2023-02-19T00:39:05.097Z,9.8
2023-02-19T00:40:18.069Z,9.8
2023-02-19T00:41:31.139Z,9.8
2023-02-19T00:42:44.105Z,9.8
2023-02-19T00:43:57.138Z,9.8
2023-02-19T00:45:10.068Z,9.8
2023-02-19T00:46:23.148Z,9.8
2023-02-19T00:47:36.276Z,9.8
2023-02-19T00:48:49.114Z,9.8
2023-02-19T00:50:02.146Z,9.6
2023-02-19T00:51:15.099Z,9.7
2023-02-19T00:52:28.058Z,9.6
2023-02-19T00:53:41.135Z,9.6
2023-02-19T00:54:54.086Z,9.6
2023-02-19T00:56:07.107Z,9.6
2023-02-19T00:57:20.102Z,9.6
2023-02-19T00:58:33.106Z,9.6
2023-02-19T00:59:46.111Z,9.6
2023-02-19T01:00:59.088Z,9.6
2023-02-19T01:02:12.081Z,9.6
2023-02-19T01:03:25.111Z,9.6
2023-02-19T01:04:38.103Z,9.6
2023-02-19T01:05:51.102Z,9.6
2023-02-19T01:07:04.087Z,9.6
2023-02-19T01:08:17.116Z,9.6
2023-02-19T01:09:30.084Z,9.6
2023-02-19T01:10:43.089Z,9.6
2023-02-19T01:11:56.079Z,9.6
2023-02-19T01:13:09.105Z,9.6
2023-02-19T01:14:22.100Z,9.6
2023-02-19T01:15:35.106Z,9.6
2023-02-19T01:16:48.262Z,9.6
2023-02-19T01:18:01.101Z,9.6
2023-02-19T01:19:14.137Z,9.6
2023-02-19T01:20:27.085Z,9.6
2023-02-19T01:21:40.108Z,9.6
2023-02-19T01:22:53.108Z,9.6
2023-02-19T01:24:06.124Z,9.6
2023-02-19T01:25:19.788Z,9.6
2023-02-19T01:26:32.116Z,9.6
2023-02-19T01:27:45.330Z,9.6
2023-02-19T01:28:58.091Z,9.6
2023-02-19T01:30:11.269Z,9.6
2023-02-19T01:31:24.193Z,9.6
2023-02-19T01:32:37.086Z,9.7
2023-02-19T01:33:50.100Z,9.7
2023-02-19T01:35:03.238Z,9.6
2023-02-19T01:36:16.105Z,9.7
2023-02-19T01:37:29.132Z,9.8
2023-02-19T01:38:42.124Z,9.8
2023-02-19T01:39:55.089Z,9.8
2023-02-19T01:41:08.402Z,9.8
2023-02-19T01:42:21.079Z,9.8
2023-02-19T01:43:34.127Z,9.8
2023-02-19T01:44:47.106Z,9.8
2023-02-19T01:46:00.125Z,9.8
2023-02-19T01:47:13.085Z,9.8
2023-02-19T01:48:26.108Z,9.8
2023-02-19T01:49:39.133Z,9.8
2023-02-19T01:50:52.126Z,9.8
2023-02-19T01:52:05.136Z,9.8
2023-02-19T01:53:18.067Z,9.8
2023-02-19T01:54:31.114Z,9.8
2023-02-19T01:55:44.130Z,9.7
2023-02-19T01:56:57.132Z,9.8
2023-02-19T01:58:10.171Z,9.8
2023-02-19T01:59:23.167Z,9.8
2023-02-19T02:00:36.200Z,9.8
2023-02-19T02:01:49.176Z,9.8
2023-02-19T02:03:02.123Z,9.8
2023-02-19T02:04:15.216Z,9.8
2023-02-19T02:05:28.628Z,9.8
2023-02-19T02:06:41.295Z,9.8
2023-02-19T02:07:54.147Z,9.8
2023-02-19T02:09:07.150Z,9.8
2023-02-19T02:10:20.113Z,9.8
2023-02-19T02:11:33.070Z,9.8
2023-02-19T02:12:45.972Z,9.8
2023-02-19T02:13:59.115Z,9.8
2023-02-19T02:15:12.154Z,9.8
2023-02-19T02:16:25.141Z,9.8
2023-02-19T02:17:38.093Z,9.8
2023-02-19T02:18:51.080Z,9.8
2023-02-19T02:20:04.134Z,9.8
2023-02-19T02:21:17.076Z,9.8
2023-02-19T02:22:30.129Z,9.8
2023-02-19T02:23:43.100Z,9.8
2023-02-19T02:24:56.127Z,9.8
2023-02-19T02:26:09.124Z,9.8
2023-02-19T02:27:22.153Z,9.8
2023-02-19T02:28:35.115Z,9.8
2023-02-19T02:29:48.121Z,9.8
2023-02-19T02:31:01.292Z,9.8
2023-02-19T02:32:14.171Z,9.8
2023-02-19T02:33:27.119Z,9.8
2023-02-19T02:34:40.146Z,9.8
2023-02-19T02:35:53.105Z,9.8
2023-02-19T02:37:06.120Z,9.8
2023-02-19T02:38:19.630Z,9.8
2023-02-19T02:39:32.132Z,9.8
2023-02-19T02:40:45.147Z,9.8
2023-02-19T02:41:58.081Z,9.8
2023-02-19T02:43:11.165Z,9.8
2023-02-19T02:44:24.148Z,9.8
2023-02-19T02:45:37.496Z,9.8
2023-02-19T02:46:50.117Z,9.8
2023-02-19T02:48:03.111Z,9.6
2023-02-19T02:49:16.243Z,9.6
2023-02-19T02:50:29.123Z,9.6
2023-02-19T02:51:42.134Z,9.6
2023-02-19T02:52:55.144Z,9.6
2023-02-19T02:54:08.160Z,9.6
2023-02-19T02:55:21.073Z,9.6
2023-02-19T02:56:34.298Z,9.6
2023-02-19T02:57:47.291Z,9.6
2023-02-19T02:59:00.114Z,9.6
2023-02-19T03:00:13.074Z,9.6
2023-02-19T03:01:26.251Z,9.6
2023-02-19T03:02:39.132Z,9.6
2023-02-19T03:03:52.108Z,9.6
2023-02-19T03:05:05.194Z,9.6
2023-02-19T03:06:18.077Z,9.6
2023-02-19T03:07:31.116Z,9.6
2023-02-19T03:08:44.124Z,9.6
2023-02-19T03:09:57.118Z,9.6
2023-02-19T03:11:10.324Z,9.6
2023-02-19T03:12:23.131Z,9.6
2023-02-19T03:13:36.129Z,9.6
2023-02-19T03:14:49.129Z,9.5
2023-02-19T03:16:02.123Z,9.4
2023-02-19T03:17:15.134Z,9.4
2023-02-19T03:18:28.119Z,9.4
2023-02-19T03:19:41.144Z,9.4
2023-02-19T03:20:54.136Z,9.4
2023-02-19T03:22:07.130Z,9.4
2023-02-19T03:23:20.117Z,9.4
2023-02-19T03:24:33.093Z,9.4
2023-02-19T03:25:46.129Z,9.4
2023-02-19T03:26:59.131Z,9.4
2023-02-19T03:28:12.119Z,9.4
2023-02-19T03:29:25.108Z,9.4
2023-02-19T03:30:38.080Z,9.4
2023-02-19T03:31:51.143Z,9.4
2023-02-19T03:33:04.117Z,9.4
2023-02-19T03:34:17.106Z,9.4
2023-02-19T03:35:30.123Z,9.4
2023-02-19T03:36:43.102Z,9.4
2023-02-19T03:37:56.149Z,9.4
2023-02-19T03:39:09.147Z,9.4
2023-02-19T03:40:22.166Z,9.4
2023-02-19T03:41:35.112Z,9.4
2023-02-19T03:42:48.116Z,9.4
2023-02-19T03:44:01.168Z,9.4
2023-02-19T03:45:14.173Z,9.4
2023-02-19T03:46:27.126Z,9.4
2023-02-19T03:47:40.144Z,9.4
2023-02-19T03:48:53.146Z,9.4
2023-02-19T03:50:06.117Z,9.4
2023-02-19T03:51:19.124Z,9.4
2023-02-19T03:52:32.146Z,9.4
2023-02-19T03:53:45.141Z,9.4
2023-02-19T03:54:58.095Z,9.4
2023-02-19T03:56:11.126Z,9.4
2023-02-19T03:57:24.154Z,9.4
2023-02-19T03:58:37.157Z,9.4
2023-02-19T03:59:50.092Z,9.4
2023-02-19T04:01:03.148Z,9.4
2023-02-19T04:02:16.144Z,9.4
2023-02-19T04:03:29.130Z,9.4
2023-02-19T04:04:42.192Z,9.4
2023-02-19T04:05:55.145Z,9.4
2023-02-19T04:07:08.139Z,9.4
2023-02-19T04:08:21.091Z,9.4
2023-02-19T04:09:34.120Z,9.4
2023-02-19T04:10:47.135Z,9.4
2023-02-19T04:12:00.133Z,9.4
2023-02-19T04:13:13.139Z,9.4
2023-02-19T04:14:26.299Z,9.4
2023-02-19T04:15:39.133Z,9.4
2023-02-19T04:16:52.211Z,9.4
2023-02-19T04:18:05.192Z,9.5
2023-02-19T04:19:18.118Z,9.4
2023-02-19T04:20:31.153Z,9.5
2023-02-19T04:21:44.146Z,9.5
2023-02-19T04:22:57.153Z,9.5
2023-02-19T04:24:10.144Z,9.5
2023-02-19T04:25:23.138Z,9.5
2023-02-19T04:26:36.145Z,9.5
2023-02-19T04:27:49.192Z,9.5
2023-02-19T04:29:02.008Z,9.5
2023-02-19T04:30:15.195Z,9.5
2023-02-19T04:31:28.252Z,9.5
2023-02-19T04:32:41.152Z,9.5
2023-02-19T04:33:54.145Z,9.5
2023-02-19T04:35:07.158Z,9.5
2023-02-19T04:36:20.241Z,9.5
2023-02-19T04:37:33.139Z,9.5
2023-02-19T04:38:46.347Z,9.5
2023-02-19T04:39:59.176Z,9.5
2023-02-19T04:41:12.432Z,9.5
2023-02-19T04:42:25.144Z,9.5
2023-02-19T04:43:38.135Z,9.5
2023-02-19T04:44:51.118Z,9.5
2023-02-19T04:46:04.181Z,9.5
2023-02-19T04:47:17.206Z,9.5
2023-02-19T04:48:30.120Z,9.5
2023-02-19T04:49:43.111Z,9.5
2023-02-19T04:50:56.161Z,9.5
2023-02-19T04:52:09.156Z,9.5
2023-02-19T04:53:22.153Z,9.5
2023-02-19T04:54:35.149Z,9.5
2023-02-19T04:55:48.143Z,9.5
2023-02-19T04:57:01.158Z,9.5
2023-02-19T04:58:14.149Z,9.4
2023-02-19T04:59:27.150Z,9.3
2023-02-19T05:00:40.140Z,9.3
2023-02-19T05:01:53.217Z,9.3
2023-02-19T05:03:06.129Z,9.3
2023-02-19T05:04:19.173Z,9.3
2023-02-19T05:05:32.128Z,9.3
2023-02-19T05:06:45.165Z,9.3
2023-02-19T05:07:58.099Z,9.3
2023-02-19T05:09:11.160Z,9.3
2023-02-19T05:10:24.150Z,9.3
2023-02-19T05:11:37.164Z,9.3
2023-02-19T05:12:50.145Z,9.3
2023-02-19T05:14:03.139Z,9.3
2023-02-19T05:15:16.481Z,9.3
2023-02-19T05:16:29.153Z,9.3
2023-02-19T05:17:42.156Z,9.3
2023-02-19T05:18:55.162Z,9.3
2023-02-19T05:20:08.435Z,9.5
2023-02-19T05:21:21.286Z,9.5
2023-02-19T05:22:34.171Z,9.5
2023-02-19T05:23:47.182Z,9.5
2023-02-19T05:25:00.183Z,9.5
2023-02-19T05:26:13.724Z,9.5
2023-02-19T05:27:26.194Z,9.5
2023-02-19T05:28:39.169Z,9.5
2023-02-19T05:29:52.189Z,9.5
2023-02-19T05:31:05.194Z,9.5
2023-02-19T05:32:18.360Z,9.5
2023-02-19T05:33:31.165Z,9.5
2023-02-19T05:34:44.164Z,9.5
2023-02-19T05:35:57.187Z,9.5
2023-02-19T05:37:10.159Z,9.3
2023-02-19T05:38:23.142Z,9.3
2023-02-19T05:39:36.100Z,9.3
2023-02-19T05:40:49.170Z,9.3
2023-02-19T05:42:02.145Z,9.3
2023-02-19T05:43:15.136Z,9.3
2023-02-19T05:44:27.881Z,9.3
2023-02-19T05:45:41.277Z,9.3
2023-02-19T05:46:54.155Z,9.3
2023-02-19T05:48:07.187Z,9.3
2023-02-19T05:49:20.153Z,9.3
2023-02-19T05:50:33.161Z,9.3
2023-02-19T05:51:46.168Z,9.3
2023-02-19T05:52:59.141Z,9.3
2023-02-19T05:54:12.503Z,9.3
2023-02-19T05:55:25.024Z,9.3
2023-02-19T05:56:38.309Z,9.3
2023-02-19T05:57:51.107Z,9.3
2023-02-19T05:59:04.171Z,9.3
2023-02-19T06:00:17.156Z,9.3
2023-02-19T06:01:30.186Z,9.3
2023-02-19T06:02:43.155Z,9.3
2023-02-19T06:03:57.456Z,9.3
2023-02-19T06:05:09.174Z,9.3
2023-02-19T06:06:22.014Z,9.3
2023-02-19T06:07:35.128Z,9.3
2023-02-19T06:08:48.156Z,9.3
2023-02-19T06:10:01.157Z,9.3
2023-02-19T06:11:14.165Z,9.3
2023-02-19T06:12:27.134Z,9.3
2023-02-19T06:13:40.184Z,9.3
2023-02-19T06:14:53.148Z,9.3
2023-02-19T06:16:06.220Z,9.3
2023-02-19T06:17:19.122Z,9.3
2023-02-19T06:18:32.171Z,9.3
2023-02-19T06:19:45.171Z,9.3
2023-02-19T06:20:58.116Z,9.3
2023-02-19T06:22:11.317Z,9.3
2023-02-19T06:23:24.042Z,9.3
2023-02-19T06:24:37.179Z,9.3
2023-02-19T06:25:50.365Z,9.3
2023-02-19T06:27:03.021Z,9.3
2023-02-19T06:28:16.162Z,9.3
2023-02-19T06:29:29.147Z,9.3
2023-02-19T06:30:42.144Z,9.3
2023-02-19T06:31:55.312Z,9.3
2023-02-19T06:33:08.060Z,9.3
2023-02-19T06:34:21.017Z,9.3
2023-02-19T06:35:34.170Z,9.2
2023-02-19T06:36:47.184Z,9.2
2023-02-19T06:38:00.172Z,9.2
2023-02-19T06:39:13.201Z,9.2
2023-02-19T06:41:40.430Z,9.2
2023-02-19T06:42:52.379Z,9.2
2023-02-19T06:44:05.200Z,9.2
2023-02-19T06:45:18.148Z,9.2
2023-02-19T06:46:31.225Z,9.2
2023-02-19T06:47:44.041Z,9.2
2023-02-19T06:48:57.162Z,9.2
2023-02-19T06:50:10.250Z,9.1
2023-02-19T06:51:23.576Z,9.1
2023-02-19T06:52:36.226Z,9.1
2023-02-19T06:53:49.214Z,9.1
2023-02-19T06:55:02.172Z,9.1
2023-02-19T06:56:15.165Z,9.1
2023-02-19T06:57:28.147Z,9.1
2023-02-19T06:58:41.148Z,9.1
2023-02-19T06:59:54.181Z,9.1
2023-02-19T07:01:07.233Z,9.1
2023-02-19T07:02:20.243Z,9.1
2023-02-19T07:03:33.149Z,9.1
2023-02-19T07:04:46.340Z,9.1
2023-02-19T07:05:59.167Z,9.1
2023-02-19T07:07:12.507Z,9.1
2023-02-19T07:08:25.152Z,9.1
2023-02-19T07:09:38.145Z,9.1
2023-02-19T07:10:51.285Z,9.1
2023-02-19T07:12:04.149Z,9.1
2023-02-19T07:13:17.170Z,9.1
2023-02-19T07:14:30.505Z,9.1
2023-02-19T07:15:43.127Z,9.1
2023-02-19T07:19:21.989Z,9.1
2023-02-19T07:20:35.142Z,9.1
2023-02-19T07:23:01.290Z,9.1
2023-02-19T07:26:40.217Z,9.1
2023-02-19T07:27:53.625Z,9.1
2023-02-19T07:29:06.213Z,9.1
2023-02-19T07:30:19.210Z,9.1
2023-02-19T07:31:32.327Z,9.1
2023-02-19T07:32:45.380Z,9.1
2023-02-19T07:33:58.183Z,9.1
2023-02-19T07:35:11.047Z,9.1
2023-02-19T07:36:24.193Z,9.1
2023-02-19T07:37:37.774Z,9.1
2023-02-19T07:38:50.217Z,9.1
2023-02-19T07:40:03.213Z,9.1
2023-02-19T07:41:16.171Z,9.1
2023-02-19T07:42:29.214Z,9.1
2023-02-19T07:43:41.917Z,9.1
2023-02-19T07:44:55.190Z,9.1
2023-02-19T07:46:08.222Z,9.1
2023-02-19T07:47:21.204Z,9.1
2023-02-19T07:48:34.310Z,9.1
2023-02-19T07:49:47.169Z,9.1
2023-02-19T07:51:00.202Z,9.1
2023-02-19T07:52:13.142Z,9.1
2023-02-19T07:53:26.542Z,9.1
2023-02-19T07:54:39.217Z,9.1
2023-02-19T07:55:52.189Z,9.1
2023-02-19T07:57:05.382Z,9.1
2023-02-19T07:58:18.073Z,9.1
2023-02-19T07:59:31.220Z,9.1
2023-02-19T08:00:44.213Z,9.1
2023-02-19T08:01:57.189Z,9.1
2023-02-19T08:03:10.322Z,9.1
2023-02-19T08:04:23.193Z,9.1
2023-02-19T08:05:36.224Z,9.1
2023-02-19T08:06:49.201Z,9.1
2023-02-19T08:08:02.211Z,9.1
2023-02-19T08:09:15.040Z,9.1
2023-02-19T08:10:28.169Z,9.1
2023-02-19T08:11:41.039Z,9.1
2023-02-19T08:12:54.369Z,9.1
2023-02-19T08:14:07.221Z,9.1
2023-02-19T08:15:22.372Z,9.1
2023-02-19T08:16:42.402Z,9.1
2023-02-19T08:17:46.213Z,9.1
2023-02-19T08:18:59.236Z,9.1
2023-02-19T08:20:12.204Z,9.2
2023-02-19T08:21:25.253Z,9.2
2023-02-19T08:22:38.763Z,9.2
2023-02-19T08:23:51.473Z,9.2
2023-02-19T08:25:04.394Z,9.2
2023-02-19T08:26:17.117Z,9.2
2023-02-19T08:27:30.485Z,9.2
2023-02-19T08:28:43.044Z,9.3
2023-02-19T08:29:56.224Z,9.3
2023-02-19T08:31:09.537Z,9.3
2023-02-19T08:32:22.395Z,9.3
2023-02-19T08:33:35.220Z,9.3
2023-02-19T08:34:48.079Z,9.3
2023-02-19T08:36:01.208Z,9.3
2023-02-19T08:37:14.200Z,9.3
2023-02-19T08:38:27.224Z,9.3
2023-02-19T08:39:40.246Z,9.3
2023-02-19T08:40:54.979Z,9.3
2023-02-19T08:42:06.257Z,9.3
2023-02-19T08:43:19.287Z,9.3
2023-02-19T08:44:32.238Z,9.3
2023-02-19T08:45:45.246Z,9.5
2023-02-19T08:46:58.227Z,9.5
2023-02-19T08:48:11.182Z,9.4
2023-02-19T08:49:24.180Z,9.4
2023-02-19T08:50:37.242Z,9.4
2023-02-19T08:51:50.230Z,9.4
2023-02-19T08:53:03.346Z,9.4
2023-02-19T08:54:16.224Z,9.4
2023-02-19T08:55:29.221Z,9.6
2023-02-19T08:56:42.305Z,9.6
2023-02-19T08:57:55.237Z,9.6
2023-02-19T08:59:08.305Z,9.8
2023-02-19T09:00:21.119Z,9.8
2023-02-19T09:01:34.233Z,9.8
2023-02-19T09:02:47.249Z,9.8
2023-02-19T09:04:00.575Z,9.8
2023-02-19T09:05:13.235Z,9.8
2023-02-19T09:06:26.239Z,10
2023-02-19T09:07:39.248Z,10
2023-02-19T09:08:52.378Z,10
2023-02-19T09:10:05.220Z,10
2023-02-19T09:11:18.120Z,10.2
2023-02-19T09:12:31.258Z,10.1
2023-02-19T09:13:44.263Z,10.1
2023-02-19T09:14:57.262Z,10.1
2023-02-19T09:16:10.256Z,10.1
2023-02-19T09:17:23.260Z,10.3
2023-02-19T09:18:36.247Z,10.2
2023-02-19T09:19:50.789Z,10.1
2023-02-19T09:21:02.107Z,10.1
2023-02-19T09:22:15.092Z,10.1
2023-02-19T09:23:28.239Z,10.3
2023-02-19T09:24:40.940Z,10.3
2023-02-19T09:25:55.348Z,10.3
2023-02-19T09:27:07.137Z,10.3
2023-02-19T09:28:20.256Z,10.3
2023-02-19T09:29:33.339Z,10.3
2023-02-19T09:30:46.249Z,10.3
2023-02-19T09:31:59.069Z,10.3
2023-02-19T09:33:12.161Z,10.4
2023-02-19T09:34:25.688Z,10.3
2023-02-19T09:35:38.181Z,10.3
2023-02-19T09:36:51.183Z,10.3
2023-02-19T09:38:04.225Z,10.1
2023-02-19T09:39:16.947Z,10.1
2023-02-19T09:40:30.072Z,10.2
2023-02-19T09:41:43.098Z,10.2
2023-02-19T09:44:09.230Z,10.1
2023-02-19T09:45:22.219Z,10.1
2023-02-19T09:46:35.020Z,10.1
2023-02-19T09:47:48.213Z,10.1
2023-02-19T09:49:01.207Z,10.1
2023-02-19T09:50:14.480Z,10.3
2023-02-19T09:51:27.068Z,10.1
2023-02-19T09:52:40.101Z,10.1
2023-02-19T09:53:53.154Z,10.1
2023-02-19T09:55:06.223Z,10.1
2023-02-19T09:56:19.037Z,10.1
2023-02-19T09:57:32.188Z,10
2023-02-19T09:58:45.538Z,10
2023-02-19T09:59:58.251Z,10
2023-02-19T10:01:11.443Z,9.9
2023-02-19T10:02:24.179Z,9.8
2023-02-19T10:03:37.185Z,9.8
2023-02-19T10:04:50.234Z,9.8
2023-02-19T10:06:03.163Z,9.8
2023-02-19T10:07:16.348Z,9.8
2023-02-19T10:08:29.165Z,9.7
2023-02-19T10:09:42.177Z,9.7
2023-02-19T10:10:55.625Z,9.8
2023-02-19T10:12:10.065Z,9.8
2023-02-19T10:15:47.024Z,9.8
2023-02-19T10:20:39.221Z,9.8
2023-02-19T10:21:52.226Z,9.8
2023-02-19T10:24:18.615Z,9.8
2023-02-19T10:25:30.979Z,9.8
2023-02-19T10:27:57.652Z,9.8
2023-02-19T10:29:10.228Z,10
2023-02-19T10:31:36.865Z,10
2023-02-19T10:32:49.076Z,10
2023-02-19T10:34:02.253Z,10.1
2023-02-19T10:35:15.246Z,10.1
2023-02-19T10:36:29.830Z,10.1
2023-02-19T10:37:41.212Z,10.1
2023-02-19T10:38:54.398Z,10.2
2023-02-19T10:40:07.199Z,10.3
2023-02-19T10:41:20.212Z,10.3
2023-02-19T10:42:33.213Z,10.3
2023-02-19T10:43:46.195Z,10.4
2023-02-19T10:44:59.179Z,10.5
2023-02-19T10:46:12.199Z,10.5
2023-02-19T10:47:25.229Z,10.5
2023-02-19T10:48:38.552Z,10.5
2023-02-19T10:49:51.128Z,10.5
2023-02-19T10:51:04.014Z,10.5
2023-02-19T10:52:17.185Z,10.5
2023-02-19T10:53:30.207Z,10.5
2023-02-19T10:54:43.164Z,10.6
2023-02-19T10:55:56.173Z,10.7
2023-02-19T10:57:09.228Z,10.7
2023-02-19T10:58:22.173Z,10.7
2023-02-19T10:59:35.172Z,10.5
2023-02-19T11:00:48.052Z,10.4
2023-02-19T11:02:01.278Z,10.3
2023-02-19T11:03:14.191Z,10.3
2023-02-19T11:04:27.304Z,10.1
2023-02-19T11:05:40.203Z,10.1
2023-02-19T11:06:53.164Z,10.1
2023-02-19T11:08:06.169Z,10
2023-02-19T11:09:19.226Z,9.9
2023-02-19T11:10:32.184Z,9.8
2023-02-19T11:11:45.054Z,10
2023-02-19T11:12:58.147Z,9.8
2023-02-19T11:14:11.292Z,9.8
2023-02-19T11:15:24.191Z,9.8
2023-02-19T11:16:37.200Z,9.8
2023-02-19T11:17:50.225Z,9.8
2023-02-19T11:19:03.219Z,9.9
2023-02-19T11:20:16.231Z,10
2023-02-19T11:21:29.200Z,10
2023-02-19T11:22:42.201Z,10
2023-02-19T11:23:55.185Z,10
2023-02-19T11:25:08.189Z,10
2023-02-19T11:26:21.142Z,10
2023-02-19T11:27:34.222Z,10
2023-02-19T11:28:47.223Z,9.8
2023-02-19T11:30:00.324Z,9.8
2023-02-19T11:31:13.665Z,9.8
2023-02-19T11:32:26.354Z,9.8
2023-02-19T11:33:39.207Z,9.7
2023-02-19T11:34:52.185Z,9.8
2023-02-19T11:36:05.194Z,9.8
2023-02-19T11:37:18.205Z,9.6
2023-02-19T11:38:31.198Z,9.6
2023-02-19T11:39:44.198Z,9.6
2023-02-19T11:40:57.194Z,9.4
2023-02-19T11:42:10.207Z,9.4
2023-02-19T11:43:23.197Z,9.4
2023-02-19T11:44:36.224Z,9.4
2023-02-19T11:45:49.177Z,9.4
2023-02-19T11:47:02.206Z,9.4
2023-02-19T11:48:15.217Z,9.4
2023-02-19T11:49:28.180Z,9.4
2023-02-19T11:50:41.198Z,9.4
2023-02-19T11:51:54.207Z,9.4
2023-02-19T11:53:07.198Z,9.4
2023-02-19T11:54:20.187Z,9.4
2023-02-19T11:55:33.214Z,9.4
2023-02-19T11:56:46.185Z,9.4
2023-02-19T11:57:59.204Z,9.4
2023-02-19T11:59:12.189Z,9.4
2023-02-19T12:00:25.199Z,9.4
2023-02-19T12:01:38.229Z,9.4
2023-02-19T12:02:51.158Z,9.4
2023-02-19T12:04:04.207Z,9.4
2023-02-19T12:05:17.196Z,9.4
2023-02-19T12:06:30.192Z,9.4
2023-02-19T12:07:43.321Z,9.4
2023-02-19T12:08:56.238Z,9.4
2023-02-19T12:10:09.168Z,9.4
2023-02-19T12:11:22.261Z,9.4
2023-02-19T12:12:37.699Z,9.4
2023-02-19T12:13:48.159Z,9.4
2023-02-19T12:15:01.228Z,9.4
2023-02-19T12:16:14.327Z,9.4
2023-02-19T12:17:27.202Z,9.4
2023-02-19T12:18:40.243Z,9.4
2023-02-19T12:19:53.192Z,9.3
2023-02-19T12:21:06.186Z,9.3
2023-02-19T12:22:19.198Z,9.4
2023-02-19T12:23:32.200Z,9.5
2023-02-19T12:24:45.065Z,9.4
2023-02-19T12:25:57.879Z,9.4
2023-02-19T12:27:11.569Z,9.5
2023-02-19T12:28:24.015Z,9.6
2023-02-19T12:29:37.035Z,9.6
2023-02-19T12:32:03.258Z,9.8
2023-02-19T12:34:29.173Z,9.7
2023-02-19T12:35:42.205Z,9.7
2023-02-19T12:36:55.185Z,9.7
2023-02-19T12:38:08.359Z,9.7
2023-02-19T12:39:21.151Z,9.7
2023-02-19T12:40:34.232Z,9.7
2023-02-19T12:41:47.249Z,9.8
2023-02-19T12:43:00.214Z,9.8
2023-02-19T12:44:13.220Z,9.8
2023-02-19T12:45:26.204Z,9.8
2023-02-19T12:46:39.224Z,9.8
2023-02-19T12:47:52.419Z,9.8
2023-02-19T12:49:05.257Z,9.8
2023-02-19T12:50:18.184Z,10
2023-02-19T12:51:31.081Z,10
2023-02-19T12:52:44.260Z,10
2023-02-19T12:53:57.372Z,10
2023-02-19T12:55:10.544Z,10
2023-02-19T12:56:23.149Z,10
2023-02-19T12:57:36.235Z,10
2023-02-19T12:58:49.188Z,10
2023-02-19T13:00:02.232Z,10
2023-02-19T13:01:15.086Z,10.1
2023-02-19T13:02:28.845Z,10.1
2023-02-19T13:03:41.399Z,10.1
2023-02-19T13:04:54.213Z,10.1
2023-02-19T13:06:09.449Z,10.1
2023-02-19T13:07:20.204Z,9.9
2023-02-19T13:08:34.158Z,10
2023-02-19T13:09:46.373Z,10
2023-02-19T13:10:59.222Z,10
2023-02-19T13:12:12.217Z,10
2023-02-19T13:13:25.099Z,10
2023-02-19T13:14:38.349Z,10
2023-02-19T13:15:51.256Z,10
2023-02-19T13:17:04.268Z,10
2023-02-19T13:18:17.755Z,10
2023-02-19T13:19:30.809Z,10
2023-02-19T13:20:43.226Z,10
2023-02-19T13:21:56.161Z,10
2023-02-19T13:23:09.645Z,9.9
2023-02-19T13:24:22.237Z,9.8
2023-02-19T13:25:35.215Z,9.8
2023-02-19T13:26:48.219Z,9.8
2023-02-19T13:28:01.248Z,9.8
2023-02-19T13:29:14.226Z,9.7
2023-02-19T13:30:27.259Z,9.8
2023-02-19T13:31:40.311Z,9.8
2023-02-19T13:32:53.206Z,9.6
2023-02-19T13:34:06.230Z,9.6
2023-02-19T13:35:19.211Z,9.6
2023-02-19T13:36:32.270Z,9.6
2023-02-19T13:37:45.225Z,9.6
2023-02-19T13:38:58.217Z,9.6
2023-02-19T13:40:11.209Z,9.8
2023-02-19T13:41:24.222Z,9.8
2023-02-19T13:42:37.242Z,9.8
2023-02-19T13:43:50.263Z,9.8
2023-02-19T13:45:03.214Z,9.8
2023-02-19T13:46:16.264Z,9.8
2023-02-19T13:47:29.210Z,9.8
2023-02-19T13:48:42.533Z,9.8
2023-02-19T13:49:55.333Z,9.8
2023-02-19T13:51:08.343Z,9.7
2023-02-19T13:52:21.194Z,9.8
2023-02-19T13:53:34.225Z,9.8
2023-02-19T13:54:47.305Z,9.8
2023-02-19T13:56:00.191Z,9.8
2023-02-19T13:57:13.190Z,9.8
2023-02-19T13:58:26.257Z,9.8
2023-02-19T13:59:39.240Z,9.8
2023-02-19T14:00:52.238Z,9.8
2023-02-19T14:02:05.257Z,9.8
2023-02-19T14:03:18.344Z,10
2023-02-19T14:04:31.146Z,10
2023-02-19T14:05:44.222Z,10
2023-02-19T14:06:57.214Z,10
2023-02-19T14:08:10.234Z,10
2023-02-19T14:09:23.216Z,10
2023-02-19T14:10:36.217Z,10.1
2023-02-19T14:11:49.107Z,10.1
2023-02-19T14:13:02.239Z,10.1
2023-02-19T14:14:15.352Z,10.1
2023-02-19T14:15:28.231Z,10.1
2023-02-19T14:16:41.114Z,10.3
2023-02-19T14:17:54.397Z,10.3
2023-02-19T14:19:07.132Z,10.3
2023-02-19T14:20:20.228Z,10.3
2023-02-19T14:21:33.228Z,10.3
2023-02-19T14:22:46.229Z,10.3
2023-02-19T14:23:59.235Z,10.3
2023-02-19T14:25:12.212Z,10.3
2023-02-19T14:26:25.094Z,10.3
2023-02-19T14:27:38.237Z,10.3
2023-02-19T14:31:18.044Z,10.4
2023-02-19T14:32:30.214Z,10.4
2023-02-19T14:33:43.082Z,10.4
2023-02-19T14:36:09.259Z,10.4
2023-02-19T14:37:22.090Z,10.4
2023-02-19T14:38:35.080Z,10.4
2023-02-19T14:39:48.295Z,10.3
2023-02-19T14:41:01.243Z,10.3
2023-02-19T14:42:14.236Z,10.3
2023-02-19T14:43:27.420Z,10.2
2023-02-19T14:44:40.252Z,10.1
2023-02-19T14:45:53.195Z,10
2023-02-19T14:47:06.234Z,10
2023-02-19T14:48:19.236Z,10
2023-02-19T14:49:32.252Z,9.8
2023-02-19T14:50:45.241Z,9.8
2023-02-19T14:51:58.240Z,9.8
2023-02-19T14:53:11.240Z,9.7
2023-02-19T14:54:24.199Z,9.8
2023-02-19T14:55:37.276Z,9.8
2023-02-19T14:56:50.236Z,9.8
2023-02-19T14:58:03.198Z,9.8
2023-02-19T14:59:15.931Z,9.6
2023-02-19T15:00:29.225Z,9.6
2023-02-19T15:01:42.286Z,9.6
2023-02-19T15:02:55.230Z,9.6
2023-02-19T15:04:08.372Z,9.6
2023-02-19T15:05:21.201Z,9.6
2023-02-19T15:06:34.109Z,9.6
2023-02-19T15:07:47.268Z,9.5
2023-02-19T15:09:00.240Z,9.4
2023-02-19T15:10:13.222Z,9.4
2023-02-19T15:11:26.223Z,9.4
2023-02-19T15:12:39.281Z,9.4
2023-02-19T15:13:52.215Z,9.4
2023-02-19T15:15:05.228Z,9.4
2023-02-19T15:16:18.295Z,9.4
2023-02-19T15:17:31.249Z,9.5
2023-02-19T15:18:44.270Z,9.5
2023-02-19T15:19:57.245Z,9.5
2023-02-19T15:21:10.538Z,9.5
2023-02-19T15:22:23.264Z,9.5
2023-02-19T15:23:36.255Z,9.5
2023-02-19T15:24:49.200Z,9.4
2023-02-19T15:26:02.240Z,9.4
2023-02-19T15:27:15.240Z,9.4
2023-02-19T15:28:28.231Z,9.4
2023-02-19T15:29:41.250Z,9.4
2023-02-19T15:30:54.466Z,9.4
2023-02-19T15:32:07.390Z,9.4
2023-02-19T15:33:20.220Z,9.4
2023-02-19T15:34:33.194Z,9.4
2023-02-19T15:35:46.260Z,9.4
2023-02-19T15:36:59.235Z,9.4
2023-02-19T15:38:12.265Z,9.4
2023-02-19T15:39:25.251Z,9.4
2023-02-19T15:40:38.233Z,9.4
2023-02-19T15:41:51.217Z,9.4
2023-02-19T15:43:04.249Z,9.4
2023-02-19T15:44:17.429Z,9.4
2023-02-19T15:45:30.477Z,9.4
2023-02-19T15:46:43.328Z,9.4
2023-02-19T15:47:56.301Z,9.4
2023-02-19T15:49:09.282Z,9.4
2023-02-19T15:50:22.233Z,9.4
2023-02-19T15:51:35.267Z,9.5
2023-02-19T15:52:48.282Z,9.5
2023-02-19T15:54:01.415Z,9.3
2023-02-19T15:55:14.269Z,9.3
2023-02-19T15:56:27.244Z,9.3
2023-02-19T15:57:40.257Z,9.3
2023-02-19T15:58:53.200Z,9.3
2023-02-19T16:00:06.287Z,9.3
2023-02-19T16:01:19.272Z,9.2
2023-02-19T16:02:32.295Z,9.2
2023-02-19T16:03:45.260Z,9.2
2023-02-19T16:04:58.222Z,9.2
2023-02-19T16:06:11.306Z,9.2
2023-02-19T16:07:24.265Z,9.2
2023-02-19T16:08:37.265Z,9.2
2023-02-19T16:09:50.252Z,9.2
2023-02-19T16:11:03.243Z,9.2
2023-02-19T16:12:16.269Z,9.2
2023-02-19T16:13:29.288Z,9.2
2023-02-19T16:14:42.253Z,9.2
2023-02-19T16:15:55.361Z,9.2
2023-02-19T16:17:08.264Z,9.2
2023-02-19T16:18:21.239Z,9.2
2023-02-19T16:19:34.642Z,9.2
2023-02-19T16:20:47.307Z,9.2
2023-02-19T16:22:00.237Z,9.2
2023-02-19T16:23:13.262Z,9.2
2023-02-19T16:24:26.381Z,9.2
2023-02-19T16:25:41.591Z,9.2
2023-02-19T16:26:52.284Z,9.2
2023-02-19T16:28:05.296Z,9.2
2023-02-19T16:29:18.775Z,9.2
2023-02-19T16:30:31.406Z,9.2
2023-02-19T16:31:44.823Z,9.2
2023-02-19T16:32:57.300Z,9.2
2023-02-19T16:34:10.527Z,9.2
2023-02-19T16:35:23.244Z,9.2
2023-02-19T16:36:36.307Z,9.2
2023-02-19T16:37:49.264Z,9.2
2023-02-19T16:39:02.642Z,9.2
2023-02-19T16:40:16.778Z,9.2
2023-02-19T16:41:28.267Z,9.2
2023-02-19T16:42:41.251Z,9.3
2023-02-19T16:43:54.288Z,9.2
2023-02-19T16:45:07.288Z,9.2
2023-02-19T16:46:20.472Z,9.2
2023-02-19T16:47:33.270Z,9.2
2023-02-19T16:48:46.206Z,9.2
2023-02-19T16:49:59.209Z,9.2
2023-02-19T16:51:12.535Z,9.2
2023-02-19T16:52:25.799Z,9.2
2023-02-19T16:53:38.112Z,9.2
2023-02-19T16:54:51.577Z,9.2
2023-02-19T16:56:04.282Z,9.2
2023-02-19T16:57:17.264Z,9.2
2023-02-19T16:58:30.319Z,9.1
2023-02-19T16:59:43.258Z,9.1
2023-02-19T17:00:56.277Z,9.1
2023-02-19T17:02:09.373Z,9.1
2023-02-19T17:03:22.266Z,9.1
2023-02-19T17:04:35.293Z,9.1
2023-02-19T17:05:48.260Z,9.1
2023-02-19T17:07:01.253Z,9.1